Time;durP1;ratioP1;P1;durP2;ratioP2;P2;SDS_P1;SDS_P2;PMS_P1;PMS_P2;Temp;Humidity;BMP_temperature;BMP_pressure;BME280_temperature;BME280_humidity;BME280_pressure;Samples;Min_cycle;Max_cycle;Signal;HPM_P1;HPM_P2
2022/10/25 00:01:00;;;;;;;20.68;14.03;;;;;;;15.08;100.00;35576.78;1801583;78;21009;-60
2022/10/25 00:03:27;;;;;;;20.72;13.68;;;;;;;15.10;100.00;35239.02;1801600;78;22053;-60
2022/10/25 00:05:54;;;;;;;23.25;13.65;;;;;;;15.11;100.00;34731.12;1801847;78;21072;-61
2022/10/25 00:08:21;;;;;;;20.95;14.53;;;;;;;15.13;100.00;34223.61;1803021;78;21030;-61
2022/10/25 00:10:48;;;;;;;21.68;13.75;;;;;;;15.14;100.00;33716.14;1797635;78;21040;-61
2022/10/25 00:13:14;;;;;;;18.48;13.20;;;;;;;15.16;100.00;33717.39;1796383;78;21064;-61
2022/10/25 00:15:42;;;;;;;18.57;13.45;;;;;;;15.18;100.00;33210.27;1797486;78;21459;-62
2022/10/25 00:18:10;;;;;;;24.07;14.35;;;;;;;15.21;100.00;33042.36;1797555;78;21400;-60
2022/10/25 00:20:37;;;;;;;27.52;14.50;;;;;;;15.23;100.00;33043.29;1793173;78;21453;-60
2022/10/25 00:23:04;;;;;;;22.35;13.93;;;;;;;15.24;100.00;33044.20;1806510;78;21057;-60
2022/10/25 00:25:31;;;;;;;21.80;14.78;;;;;;;15.26;100.00;33892.53;1797707;78;21031;-61
2022/10/25 00:27:58;;;;;;;23.42;14.87;;;;;;;15.26;100.00;34910.02;1800913;78;21283;-61
2022/10/25 00:30:25;;;;;;;22.50;14.05;;;;;;;15.25;100.00;35926.50;1798974;78;20952;-61
2022/10/25 00:32:53;;;;;;;24.77;15.03;;;;;;;15.26;100.00;36605.99;1795168;78;21031;-61
2022/10/25 00:35:20;;;;;;;23.18;14.95;;;;;;;15.27;100.00;36606.32;1803089;78;20964;-61
2022/10/25 00:37:47;;;;;;;20.15;14.30;;;;;;;15.28;100.00;36776.64;1793053;78;21037;-61
2022/10/25 00:40:14;;;;;;;22.42;14.60;;;;;;;15.30;100.00;37626.39;1806265;78;21503;-61
2022/10/25 00:42:41;;;;;;;19.73;14.98;;;;;;;15.29;100.00;38474.30;1801588;78;21254;-61
2022/10/25 00:45:24;;;;;;;23.80;14.25;;;;;;;15.31;100.00;38645.82;1802686;78;21064;-61
2022/10/25 00:48:00;;;;;;;22.62;15.48;;;;;;;15.32;100.00;38985.71;1797138;79;21003;-62
2022/10/25 00:50:36;;;;;;;23.42;15.38;;;;;;;15.32;100.00;40344.56;1793046;79;21069;-62
2022/10/25 00:53:10;;;;;;;26.12;15.38;;;;;;;15.33;100.00;41534.44;1792351;79;21290;-63
2022/10/25 00:55:39;;;;;;;22.23;15.17;;;;;;;15.34;100.00;42384.47;1789105;78;21064;-62
2022/10/25 00:58:13;;;;;;;25.17;15.53;;;;;;;15.36;100.00;43235.91;1797484;79;21081;-62
2022/10/25 01:00:40;;;;;;;22.35;15.00;;;;;;;15.38;100.00;43917.18;1784945;79;21573;-61
2022/10/25 01:03:06;;;;;;;21.25;14.58;;;;;;;15.38;100.00;44767.90;1795351;79;21141;-61
2022/10/25 01:05:34;;;;;;;20.50;14.45;;;;;;;15.38;100.00;45958.28;1783255;79;21705;-61
2022/10/25 01:08:01;;;;;;;25.32;16.07;;;;;;;15.39;100.00;46980.57;1792433;79;21094;-61
2022/10/25 01:10:28;;;;;;;25.17;16.07;;;;;;;15.40;100.00;48343.30;1788656;79;21615;-61
2022/10/25 01:12:56;;;;;;;20.23;14.55;;;;;;;15.38;100.00;49874.29;1798164;79;21056;-61
2022/10/25 01:15:26;;;;;;;26.62;16.32;;;;;;;15.38;100.00;51748.10;1789553;79;21038;-60
2022/10/25 01:18:01;;;;;;;22.07;15.70;;;;;;;15.37;100.00;52429.45;1791912;79;20985;-61
2022/10/25 01:20:46;;;;;;;24.40;15.78;;;;;;;15.37;100.00;52940.89;1793569;79;21230;-62
2022/10/25 01:24:03;;;;;;;23.98;15.30;;;;;;;15.39;100.00;53113.29;1802726;79;21063;-63
2022/10/25 01:26:39;;;;;;;;;;;;;;;15.38;100.00;54306.09;1775193;78;21089;-62
2022/10/25 01:29:38;;;;;;;24.10;14.85;;;;;;;15.38;100.00;56524.16;1794184;79;20157;-62
2022/10/25 01:32:18;;;;;;;22.30;15.45;;;;;;;15.36;100.00;58400.03;1791083;78;21682;-62
2022/10/25 01:35:05;;;;;;;22.62;15.20;;;;;;;15.35;100.00;58569.77;1789484;79;21030;-62
2022/10/25 01:38:11;;;;;;;22.05;15.50;;;;;;;15.33;100.00;59555.07;1756331;79;21107;-63
2022/10/25 01:40:49;;;;;;;27.85;16.23;;;;;;;15.32;100.00;58918.87;1793569;79;21610;-62
2022/10/25 01:43:34;;;;;;;24.50;16.95;;;;;;;15.32;100.00;58395.89;1791277;79;21101;-62
2022/10/25 01:46:23;;;;;;;27.52;17.00;;;;;;;15.31;100.00;59077.93;1792561;78;22135;-62
2022/10/25 01:48:58;;;;;;;24.72;15.95;;;;;;;15.30;100.00;60819.85;1793656;78;21607;-63
2022/10/25 01:51:25;;;;;;;24.35;16.93;;;;;;;15.28;100.00;61696.16;1800114;78;21668;-62
2022/10/25 01:53:52;;;;;;;25.20;17.82;;;;;;;15.26;100.00;62509.88;1799700;78;21045;-62
2022/10/25 01:56:29;;;;;;;22.50;15.75;;;;;;;15.25;100.00;62806.27;1793686;78;21009;-63
2022/10/25 01:59:19;;;;;;;24.07;16.82;;;;;;;15.22;100.00;62826.98;1801798;78;21481;-63
2022/10/25 02:02:13;;;;;;;22.00;16.57;;;;;;;15.19;100.00;62560.12;1800923;78;21069;-64
2022/10/25 02:05:20;;;;;;;25.68;16.30;;;;;;;15.18;100.00;61522.15;1809435;78;21110;-63
2022/10/25 02:08:07;;;;;;;27.70;16.95;;;;;;;15.16;100.00;60781.85;1800128;78;21557;-62
2022/10/25 02:10:40;;;;;;;23.65;16.87;;;;;;;15.17;100.00;58722.85;1795394;78;21009;-62
2022/10/25 02:13:21;;;;;;;25.68;16.82;;;;;;;15.17;100.00;56674.68;1802678;78;21236;-63
2022/10/25 02:16:04;;;;;;;27.65;18.17;;;;;;;15.19;100.00;53947.16;1797839;78;21028;-60
2022/10/25 02:18:34;;;;;;;24.05;17.02;;;;;;;15.21;100.00;51732.84;1791411;78;21071;-63
2022/10/25 02:21:02;;;;;;;26.97;17.20;;;;;;;15.22;100.00;50370.91;1807121;78;21486;-62
2022/10/25 02:23:29;;;;;;;28.80;18.27;;;;;;;15.23;100.00;48499.18;1802723;78;21017;-63
2022/10/25 02:25:55;;;;;;;27.22;17.35;;;;;;;15.24;100.00;46797.71;1794075;78;21243;-63
2022/10/25 02:28:26;;;;;;;26.50;17.07;;;;;;;15.25;100.00;45947.91;1802775;78;20992;-63
2022/10/25 02:30:53;;;;;;;28.52;18.50;;;;;;;15.24;100.00;45266.73;1802818;78;21069;-63
2022/10/25 02:33:19;;;;;;;28.80;18.40;;;;;;;15.25;100.00;44587.32;1776220;78;21524;-63
2022/10/25 02:36:09;;;;;;;26.07;18.77;;;;;;;15.23;100.00;44416.08;1797715;78;21036;-61
2022/10/25 02:38:37;;;;;;;27.17;18.35;;;;;;;15.24;100.00;43226.50;1796087;78;21049;-60
2022/10/25 02:41:04;;;;;;;26.05;18.30;;;;;;;15.25;100.00;41188.26;1799611;78;21351;-60
2022/10/25 02:43:31;;;;;;;31.35;18.82;;;;;;;15.27;100.00;38982.50;1802533;78;21607;-60
2022/10/25 02:45:58;;;;;;;29.67;19.40;;;;;;;15.30;100.00;37117.33;1793045;78;21263;-60
2022/10/25 02:48:25;;;;;;;33.33;18.48;;;;;;;15.33;100.00;34575.09;1806939;78;21037;-60
2022/10/25 02:50:52;;;;;;;31.35;18.77;;;;;;;15.38;100.00;33391.53;1793204;78;21514;-60
2022/10/25 02:53:22;;;;;;;35.25;19.90;;;;;;;15.41;100.00;32884.88;1797558;78;21007;-60
2022/10/25 02:56:07;;;;;;;24.07;18.57;;;;;;;15.44;100.00;32547.74;1794776;78;21088;-60
2022/10/25 02:58:35;;;;;;;33.30;18.73;;;;;;;15.46;100.00;32718.14;1802914;78;20961;-61
2022/10/25 03:01:05;;;;;;;34.35;19.87;;;;;;;15.48;100.00;32210.90;1793286;78;21079;-60
2022/10/25 03:03:33;;;;;;;31.15;20.32;;;;;;;15.51;100.00;31703.99;1793009;79;21163;-61
2022/10/25 03:06:00;;;;;;;35.43;20.00;;;;;;;15.54;100.00;31197.42;1797358;78;21036;-61
2022/10/25 03:08:27;;;;;;;35.78;21.15;;;;;;;15.56;100.00;31198.59;1798911;78;21271;-61
2022/10/25 03:10:55;;;;;;;34.33;19.75;;;;;;;15.59;100.00;31200.64;1795054;78;21507;-61
2022/10/25 03:13:23;;;;;;;37.00;20.65;;;;;;;15.60;100.00;31879.12;1801850;78;21001;-62
2022/10/25 03:15:50;;;;;;;36.00;20.23;;;;;;;15.60;100.00;32557.16;1755166;80;21285;-61
2022/10/25 03:18:17;;;;;;;32.93;20.45;;;;;;;15.60;100.00;32557.16;1771493;80;20961;-60
2022/10/25 03:20:45;;;;;;;38.23;20.92;;;;;;;15.62;100.00;32727.61;1762833;80;21398;-62
2022/10/25 03:23:12;;;;;;;39.67;20.15;;;;;;;15.61;100.00;32896.54;1731538;81;21065;-60
2022/10/25 03:25:39;;;;;;;39.20;20.95;;;;;;;15.62;100.00;32727.61;1763480;80;21049;-60
2022/10/25 03:28:06;;;;;;;29.37;20.45;;;;;;;15.63;100.00;32558.68;1759245;80;21247;-60
2022/10/25 03:30:33;;;;;;;30.20;20.72;;;;;;;15.64;100.00;32219.93;1763387;80;21048;-61
2022/10/25 03:33:00;;;;;;;30.48;20.48;;;;;;;15.64;100.00;32559.29;1754313;80;21160;-60
2022/10/25 03:35:27;;;;;;;29.70;21.40;;;;;;;15.64;100.00;32728.83;1762868;80;21117;-61
2022/10/25 03:37:55;;;;;;;30.92;20.55;;;;;;;15.66;100.00;32221.44;1751417;80;21065;-62
2022/10/25 03:40:23;;;;;;;30.30;21.00;;;;;;;15.67;100.00;32052.21;1758940;80;21481;-61
2022/10/25 03:42:50;;;;;;;41.25;23.18;;;;;;;15.66;100.00;32221.44;1766602;80;21071;-61
2022/10/25 03:45:19;;;;;;;36.15;21.37;;;;;;;15.68;100.00;31883.60;1767348;80;20953;-59
2022/10/25 03:47:46;;;;;;;36.93;22.90;;;;;;;15.68;100.00;31205.62;1763188;80;21103;-62
2022/10/25 03:50:14;;;;;;;29.37;21.62;;;;;;;15.69;100.00;30867.26;1763607;80;21345;-62
2022/10/25 03:52:40;;;;;;;32.93;21.90;;;;;;;15.71;100.00;30868.42;1760310;80;21128;-63
2022/10/25 03:55:09;;;;;;;32.60;21.48;;;;;;;15.72;100.00;30699.53;1764565;80;21061;-63
2022/10/25 03:57:36;;;;;;;32.98;21.75;;;;;;;15.74;100.00;30530.94;1724421;82;21044;-63
2022/10/25 04:00:04;;;;;;;30.48;20.95;;;;;;;15.74;100.00;30870.16;1760388;80;21110;-62
2022/10/25 04:02:33;;;;;;;32.03;21.15;;;;;;;15.76;100.00;31040.80;1759864;80;21040;-62
2022/10/25 04:05:00;;;;;;;33.30;20.95;;;;;;;15.78;100.00;30533.23;1760275;80;21777;-62
2022/10/25 04:07:27;;;;;;;36.93;20.95;;;;;;;15.80;100.00;30534.09;1765492;80;21055;-62
2022/10/25 04:09:54;;;;;;;33.55;20.15;;;;;;;15.81;100.00;31551.69;1760035;80;21466;-62
2022/10/25 04:12:21;;;;;;;31.52;20.08;;;;;;;15.81;100.00;32229.88;1728477;81;21087;-62
2022/10/25 04:14:48;;;;;;;39.75;20.88;;;;;;;15.82;100.00;32908.81;1760291;80;21529;-62
2022/10/25 04:17:16;;;;;;;28.25;19.67;;;;;;;15.81;100.00;33247.41;1764253;80;21024;-62
2022/10/25 04:19:44;;;;;;;33.67;21.20;;;;;;;15.82;100.00;33417.96;1748878;81;21027;-62
2022/10/25 04:22:13;;;;;;;36.98;20.97;;;;;;;15.83;100.00;33927.51;1741132;81;21048;-63
2022/10/25 04:24:40;;;;;;;35.38;21.20;;;;;;;15.83;100.00;33927.20;1761625;80;21173;-62
2022/10/25 04:27:07;;;;;;;36.68;20.60;;;;;;;15.85;100.00;33589.46;1768757;80;21150;-63
2022/10/25 04:29:35;;;;;;;34.33;19.55;;;;;;;15.87;100.00;33590.41;1736523;81;21076;-63
2022/10/25 04:32:02;;;;;;;29.18;18.42;;;;;;;15.88;100.00;33930.35;1760055;80;21058;-63
2022/10/25 04:34:29;;;;;;;29.10;19.00;;;;;;;15.90;100.00;34440.68;1760431;80;21032;-63
2022/10/25 04:36:56;;;;;;;31.57;19.20;;;;;;;15.90;100.00;35629.12;1760468;80;21068;-63
2022/10/25 04:39:23;;;;;;;27.20;17.32;;;;;;;15.91;100.00;37157.68;1740540;81;21019;-63
2022/10/25 04:41:50;;;;;;;29.92;18.02;;;;;;;15.91;100.00;39026.45;1765158;80;21218;-62
2022/10/25 04:44:17;;;;;;;34.53;18.52;;;;;;;15.92;100.00;40556.95;1755673;80;21521;-61
2022/10/25 04:46:45;;;;;;;24.47;17.17;;;;;;;15.93;100.00;42428.04;1759343;80;21105;-61
2022/10/25 04:49:12;;;;;;;29.20;17.55;;;;;;;15.95;100.00;42769.83;1764288;80;21130;-61
2022/10/25 04:51:40;;;;;;;27.77;18.23;;;;;;;15.96;100.00;43791.98;1728747;81;21047;-60
2022/10/25 04:54:07;;;;;;;31.02;17.82;;;;;;;15.97;100.00;44814.08;1755351;80;21293;-61
2022/10/25 04:56:33;;;;;;;26.85;16.07;;;;;;;15.99;100.00;46007.26;1755194;80;21054;-60
2022/10/25 04:59:00;;;;;;;24.10;16.40;;;;;;;16.01;100.00;47030.96;1723424;81;21091;-60
2022/10/25 05:01:27;;;;;;;36.17;17.45;;;;;;;16.02;100.00;48735.93;1760524;80;21717;-61
2022/10/25 05:03:54;;;;;;;30.60;16.73;;;;;;;16.01;100.00;50611.00;1723896;81;21447;-60
2022/10/25 05:06:25;;;;;;;28.32;17.17;;;;;;;16.02;100.00;51635.37;1763537;80;21492;-60
2022/10/25 05:08:53;;;;;;;28.25;16.00;;;;;;;16.03;100.00;52318.33;1755757;80;20997;-61
2022/10/25 05:11:22;;;;;;;27.48;15.68;;;;;;;16.04;100.00;53172.58;1763423;80;20965;-62
2022/10/25 05:13:49;;;;;;;25.90;15.35;;;;;;;16.07;100.00;53857.79;1755863;80;21060;-61
2022/10/25 05:16:22;;;;;;;30.75;16.20;;;;;;;16.09;100.00;55055.05;1763479;80;21095;-61
2022/10/25 05:18:55;;;;;;;26.20;15.28;;;;;;;16.08;100.00;57275.06;1747608;81;21075;-61
2022/10/25 05:21:29;;;;;;;24.45;15.40;;;;;;;16.09;100.00;58301.66;1771611;80;21020;-61
2022/10/25 05:23:53;;;;;;;22.37;16.05;;;;;;;16.10;100.00;59157.59;1745012;81;21531;-61
2022/10/25 05:26:20;;;;;;;28.32;14.63;;;;;;;16.12;100.00;60049.57;1749818;81;21080;-61
2022/10/25 05:28:49;;;;;;;26.87;15.90;;;;;;;16.12;100.00;61081.39;1799010;78;21097;-61
2022/10/25 05:31:22;;;;;;;26.77;16.37;;;;;;;16.12;100.00;61773.09;1797587;78;21295;-60
2022/10/25 05:33:58;;;;;;;22.50;15.08;;;;;;;16.14;100.00;62204.53;1796810;78;21033;-60
2022/10/25 05:36:27;;;;;;;24.85;15.88;;;;;;;16.17;100.00;61442.41;1799548;78;21004;-60
2022/10/25 05:38:54;;;;;;;25.12;15.08;;;;;;;16.22;100.00;62172.62;1797568;78;21073;-61
2022/10/25 05:41:21;;;;;;;26.00;14.73;;;;;;;16.24;100.00;63450.64;1792980;79;21464;-62
2022/10/25 05:43:51;;;;;;;31.20;14.70;;;;;;;16.27;100.00;64310.45;1796268;78;21239;-60
2022/10/25 05:46:22;;;;;;;24.45;14.85;;;;;;;16.32;100.00;64487.45;1804603;78;21000;-59
2022/10/25 05:48:50;;;;;;;24.05;14.65;;;;;;;16.39;100.00;65008.34;1802983;78;21079;-62
2022/10/25 05:51:23;;;;;;;25.02;15.23;;;;;;;16.43;100.00;74624.02;1803704;79;21099;-61
2022/10/25 05:53:53;;;;;;;25.35;15.60;;;;;;;16.38;100.00;90464.50;1733145;81;21087;-61
2022/10/25 05:56:22;;;;;;;27.00;15.55;;;;;;;16.29;100.00;99959.25;1749230;81;21149;-62
2022/10/25 05:58:48;;;;;;;29.67;15.85;;;;;;;16.22;100.00;99947.13;1743853;81;21081;-62
2022/10/25 06:01:20;;;;;;;26.35;15.40;;;;;;;16.20;100.00;93718.70;1706216;82;21526;-61
2022/10/25 06:03:48;;;;;;;22.60;14.23;;;;;;;16.18;100.00;90779.87;1791639;79;20942;-61
2022/10/25 06:06:15;;;;;;;23.47;14.75;;;;;;;16.18;100.00;86812.91;1794097;79;21022;-61
2022/10/25 06:08:42;;;;;;;29.10;15.05;;;;;;;16.19;100.00;84573.01;1789435;79;21479;-61
2022/10/25 06:11:13;;;;;;;29.02;16.70;;;;;;;16.20;100.00;83885.33;1798899;79;21021;-63
2022/10/25 06:13:41;;;;;;;27.00;14.87;;;;;;;16.20;100.00;84229.89;1796256;79;21022;-63
2022/10/25 06:16:10;;;;;;;31.87;16.00;;;;;;;16.19;100.00;84573.01;1787399;79;21034;-63
2022/10/25 06:18:38;;;;;;;28.73;15.80;;;;;;;16.18;100.00;83021.20;1801973;79;21103;-63
2022/10/25 06:21:11;;;;;;;27.45;13.93;;;;;;;16.19;100.00;80956.58;1794568;79;21328;-63
2022/10/25 06:23:39;;;;;;;25.32;15.03;;;;;;;16.20;100.00;79752.65;1793807;79;21034;-63
2022/10/25 06:26:12;;;;;;;27.55;15.40;;;;;;;16.21;100.00;78378.47;1794692;79;21671;-63
2022/10/25 06:28:39;;;;;;;26.57;15.30;;;;;;;16.22;100.00;79584.05;1787611;79;21471;-64
2022/10/25 06:31:12;;;;;;;25.88;14.60;;;;;;;16.24;100.00;77866.59;1788608;79;21011;-63
2022/10/25 06:33:39;;;;;;;28.75;16.27;;;;;;;16.26;100.00;81310.05;1799308;79;21517;-64
2022/10/25 06:36:11;;;;;;;30.45;16.00;;;;;;;16.27;100.00;82861.98;1795464;78;21024;-63
2022/10/25 06:38:37;;;;;;;23.85;15.50;;;;;;;16.27;100.00;84929.47;1787893;79;21604;-63
2022/10/25 06:41:07;;;;;;;28.02;15.32;;;;;;;16.30;100.00;84416.88;1798856;79;21083;-63
2022/10/25 06:43:33;;;;;;;27.22;15.98;;;;;;;16.30;100.00;88554.38;1789074;79;21399;-63
2022/10/25 06:46:31;;;;;;;25.85;15.53;;;;;;;16.29;100.00;89588.95;1792129;79;21131;-65
2022/10/25 06:48:59;;;;;;;22.55;15.15;;;;;;;16.30;100.00;89763.09;1797726;78;21092;-64
2022/10/25 06:51:28;;;;;;;28.42;16.17;;;;;;;16.34;100.00;87008.00;1783060;78;21021;-64
2022/10/25 06:53:57;;;;;;;22.98;15.05;;;;;;;16.38;100.00;88220.83;1789977;79;21058;-64
2022/10/25 06:56:25;;;;;;;22.22;15.58;;;;;;;16.44;100.00;90646.58;1789535;79;21084;-64
2022/10/25 06:58:52;;;;;;;34.65;16.93;;;;;;;16.50;100.00;94975.98;1794832;79;21239;-64
2022/10/25 07:01:20;;;;;;;28.67;15.63;;;;;;;16.55;100.00;103813.40;1790289;79;20992;-65
2022/10/25 07:03:49;;;;;;;27.22;15.68;;;;;;;16.61;100.00;109203.89;1794903;79;21060;-65
2022/10/25 07:06:34;;;;;;;25.97;14.58;;;;;;;16.67;100.00;122261.95;1792032;78;21124;-63
2022/10/25 07:09:01;;;;;;;26.52;16.05;;;;;;;16.73;100.00;131176.30;1785559;78;21071;-64
2022/10/25 07:11:31;;;;;;;32.98;15.58;;;;;;;16.77;100.00;146845.73;1788760;79;21545;-63
2022/10/25 07:13:59;;;;;;;23.65;15.58;;;;;;;16.78;100.00;151870.00;1790053;79;21003;-65
2022/10/25 07:16:26;;;;;;;24.35;15.03;;;;;;;16.80;100.00;151873.87;1793052;79;21059;-63
2022/10/25 07:19:02;;;;;;;23.95;15.03;;;;;;;16.81;100.00;151877.81;1789138;79;21068;-61
2022/10/25 07:21:30;;;;;;;25.80;14.45;;;;;;;16.80;100.00;151875.22;1786366;78;22361;-64
2022/10/25 07:23:57;;;;;;;26.50;15.28;;;;;;;16.78;100.00;151870.00;1754908;79;21302;-63
2022/10/25 07:26:29;;;;;;;25.00;13.85;;;;;;;16.77;100.00;151867.41;1785939;79;22149;-63
2022/10/25 07:28:58;;;;;;;26.07;14.63;;;;;;;16.77;100.00;151867.41;1793300;79;21050;-63
2022/10/25 07:31:30;;;;;;;22.75;14.23;;;;;;;16.78;100.00;151870.00;1784260;78;21067;-61
2022/10/25 07:33:59;;;;;;;23.55;13.60;;;;;;;16.80;100.00;151875.22;1784618;79;21099;-61
2022/10/25 07:36:26;;;;;;;24.63;13.85;;;;;;;16.82;100.00;151879.14;1791068;79;21216;-61
2022/10/25 07:38:53;;;;;;;29.77;13.90;;;;;;;16.82;100.00;151880.42;1785475;78;20958;-61
2022/10/25 07:41:20;;;;;;;22.13;14.07;;;;;;;16.87;100.00;151893.44;1792603;79;21037;-62
2022/10/25 07:43:50;;;;;;;23.95;12.55;;;;;;;16.93;100.00;151907.78;1789912;79;21050;-62
2022/10/25 07:46:18;;;;;;;22.98;13.62;;;;;;;16.96;100.00;151914.33;1792213;79;21025;-62
2022/10/25 07:48:46;;;;;;;24.98;14.15;;;;;;;17.00;100.00;151924.80;1802535;78;21209;-62
2022/10/25 07:51:15;;;;;;;22.00;13.18;;;;;;;17.01;100.00;151928.67;1802956;78;21102;-61
2022/10/25 07:53:42;;;;;;;23.50;13.78;;;;;;;16.99;100.00;151922.19;1812584;78;21031;-62
2022/10/25 07:56:13;;;;;;;19.50;12.93;;;;;;;16.98;100.00;151919.53;1799921;78;21426;-61
2022/10/25 07:58:42;;;;;;;28.27;13.80;;;;;;;16.97;100.00;151916.94;1798960;78;21461;-61
2022/10/25 08:01:09;;;;;;;25.12;12.88;;;;;;;16.93;100.00;151907.78;1802127;78;21078;-61
2022/10/25 08:03:38;;;;;;;30.10;13.58;;;;;;;16.90;100.00;151901.25;1763555;80;21065;-62
2022/10/25 08:06:05;;;;;;;27.60;13.40;;;;;;;16.88;100.00;151896.05;1763559;79;21036;-63
2022/10/25 08:08:32;;;;;;;29.18;13.80;;;;;;;16.90;100.00;151901.25;1768621;79;21058;-64
2022/10/25 08:11:02;;;;;;;22.73;12.53;;;;;;;16.98;100.00;151919.53;1764935;80;21084;-62
2022/10/25 08:13:29;;;;;;;22.05;12.30;;;;;;;17.05;100.00;151937.81;1693916;80;21055;-62
2022/10/25 08:16:00;;;;;;;25.72;12.53;;;;;;;17.15;100.00;151962.59;1805102;78;21013;-62
2022/10/25 08:18:26;;;;;;;20.95;11.65;;;;;;;17.22;100.00;151979.55;1812601;78;21728;-62
2022/10/25 08:20:54;;;;;;;21.77;12.37;;;;;;;17.27;100.00;151992.56;1813455;78;21038;-63
2022/10/25 08:23:24;;;;;;;24.95;11.93;;;;;;;17.31;100.00;152003.00;1810823;78;21132;-63
2022/10/25 08:25:51;;;;;;;27.50;12.82;;;;;;;17.31;100.00;152003.00;1807141;78;21276;-62
2022/10/25 08:28:17;;;;;;;21.80;11.08;;;;;;;17.30;100.00;152000.39;1815219;78;21451;-62
2022/10/25 08:30:44;;;;;;;19.95;11.38;;;;;;;17.30;100.00;152000.39;1807754;78;21040;-62
2022/10/25 08:33:11;;;;;;;17.75;11.18;;;;;;;17.31;100.00;152003.00;1800352;78;21073;-63
2022/10/25 08:35:39;;;;;;;20.32;11.30;;;;;;;17.31;100.00;152003.00;1760772;79;21049;-62
2022/10/25 08:38:06;;;;;;;23.98;11.15;;;;;;;17.31;100.00;152004.31;1729715;81;21250;-62
2022/10/25 08:40:51;;;;;;;22.58;11.05;;;;;;;17.36;100.00;152016.06;1763555;79;20975;-62
2022/10/25 08:43:47;;;;;;;18.35;11.65;;;;;;;17.41;100.00;152029.09;1759147;80;21122;-62
2022/10/25 08:46:26;;;;;;;17.02;10.20;;;;;;;17.50;100.00;152049.94;1767407;80;20993;-63
2022/10/25 08:49:10;;;;;;;15.80;9.98;;;;;;;17.56;100.00;152065.56;1767220;79;21440;-61
2022/10/25 08:51:39;;;;;;;22.87;10.85;;;;;;;17.61;100.00;152078.66;1766586;80;21222;-62
2022/10/25 08:54:26;;;;;;;20.88;10.05;;;;;;;17.67;100.00;152094.28;1786745;78;21047;-61
2022/10/25 08:57:23;;;;;;;19.27;9.70;;;;;;;17.76;100.00;152117.73;1785421;78;21123;-62
2022/10/25 08:59:58;;;;;;;20.17;9.45;;;;;;;17.82;100.00;152130.81;1777868;78;20951;-61
2022/10/25 09:02:45;;;;;;;23.57;10.58;;;;;;;17.85;100.00;152138.64;1782988;78;21032;-61
2022/10/25 09:05:28;;;;;;;20.88;9.73;;;;;;;17.84;100.00;152136.03;1783172;78;21217;-61
2022/10/25 09:08:07;;;;;;;17.92;9.55;;;;;;;17.90;100.00;152151.67;1792376;78;21008;-61
2022/10/25 09:11:17;;;;;;;19.90;10.08;;;;;;;17.92;100.00;152156.88;1738672;78;21054;-62
2022/10/25 09:14:31;;;;;;;17.52;9.88;;;;;;;17.92;100.00;152156.88;1708325;78;21102;-62
2022/10/25 09:17:17;;;;;;;20.82;10.13;;;;;;;17.96;100.00;152166.03;1784823;78;21144;-61
2022/10/25 09:19:59;;;;;;;21.20;10.23;;;;;;;17.98;100.00;152172.52;1786183;78;21129;-61
2022/10/25 09:22:44;;;;;;;22.05;9.60;;;;;;;18.06;100.00;152190.86;1788528;78;21329;-63
2022/10/25 09:25:15;;;;;;;;;;;;;;;18.09;100.00;152198.69;1798549;78;21110;-62
2022/10/25 09:28:00;;;;;;;15.30;9.18;;;;;;;18.08;100.00;152196.08;1784979;78;20167;-62
2022/10/25 09:30:27;;;;;;;22.25;9.80;;;;;;;18.12;100.00;152206.50;1785315;78;20993;-60
2022/10/25 09:33:02;;;;;;;16.00;9.45;;;;;;;18.14;100.00;152213.03;1789081;78;21467;-60
2022/10/25 09:35:38;;;;;;;22.75;10.48;;;;;;;18.17;100.00;152219.53;1756594;78;21099;-60
2022/10/25 09:38:16;;;;;;;18.07;10.00;;;;;;;18.14;100.00;152213.03;1778573;78;21098;-61
2022/10/25 09:40:50;;;;;;;18.73;9.63;;;;;;;18.14;100.00;152211.72;1757497;78;21041;-61
2022/10/25 09:43:21;;;;;;;17.50;8.95;;;;;;;18.13;100.00;152209.11;1786089;78;20995;-62
2022/10/25 09:45:56;;;;;;;20.30;9.25;;;;;;;18.16;100.00;152216.92;1787178;78;21138;-63
2022/10/25 09:48:42;;;;;;;19.10;8.75;;;;;;;18.21;100.00;152229.97;1793860;78;21364;-64
2022/10/25 09:51:30;;;;;;;16.85;9.10;;;;;;;18.26;100.00;152241.72;1801747;78;21350;-61
2022/10/25 09:53:57;;;;;;;17.40;9.58;;;;;;;18.28;100.00;152246.94;1802101;78;21052;-62
2022/10/25 09:56:25;;;;;;;18.65;9.48;;;;;;;18.26;100.00;152243.03;1799465;78;21043;-62
2022/10/25 09:58:52;;;;;;;17.05;9.13;;;;;;;18.24;100.00;152236.50;1805851;78;21243;-62
2022/10/25 10:01:26;;;;;;;20.08;9.20;;;;;;;18.22;100.00;152232.56;1815294;78;21578;-62
2022/10/25 10:03:59;;;;;;;16.87;8.33;;;;;;;18.21;100.00;152228.69;1802595;78;21411;-63
2022/10/25 10:06:33;;;;;;;19.20;9.28;;;;;;;18.17;100.00;152219.53;1797565;78;20853;-63
2022/10/25 10:09:03;;;;;;;17.15;8.75;;;;;;;18.17;100.00;152219.53;1795836;78;20984;-62
2022/10/25 10:11:30;;;;;;;17.87;8.50;;;;;;;18.16;100.00;152216.92;1772352;79;21570;-62
2022/10/25 10:14:08;;;;;;;18.25;8.68;;;;;;;18.16;100.00;152216.92;1798234;78;21281;-63
2022/10/25 10:16:49;;;;;;;19.17;8.65;;;;;;;18.16;100.00;152216.92;1801847;78;21386;-61
2022/10/25 10:19:22;;;;;;;21.45;8.45;;;;;;;18.11;100.00;152205.17;1795502;78;21016;-62
2022/10/25 10:21:56;;;;;;;19.12;9.03;;;;;;;18.08;100.00;152196.08;1818242;78;21059;-62
2022/10/25 10:24:32;;;;;;;21.45;8.40;;;;;;;18.01;100.00;152180.39;1810777;78;21476;-62
2022/10/25 10:27:22;;;;;;;23.87;9.30;;;;;;;17.94;100.00;152162.09;1796635;78;21021;-61
2022/10/25 10:29:59;;;;;;;14.43;8.10;;;;;;;17.92;100.00;152155.59;1801932;78;21466;-63
2022/10/25 10:32:30;;;;;;;18.20;8.40;;;;;;;17.88;100.00;152147.73;1805074;78;21543;-61
2022/10/25 10:34:57;;;;;;;17.73;8.28;;;;;;;17.84;100.00;152136.03;1808459;77;21083;-62
2022/10/25 10:37:29;;;;;;;14.38;8.58;;;;;;;17.80;100.00;152125.61;1807555;78;21197;-61
2022/10/25 10:40:03;;;;;;;19.40;8.18;;;;;;;17.78;100.00;152120.34;1811535;78;21032;-63
2022/10/25 10:42:34;;;;;;;16.27;7.85;;;;;;;17.78;100.00;152120.34;1801069;78;21039;-63
2022/10/25 10:45:10;;;;;;;17.67;8.83;;;;;;;17.74;100.00;152111.25;1808546;77;21042;-63
2022/10/25 10:47:44;;;;;;;14.73;8.18;;;;;;;17.70;100.00;152102.09;1799911;78;21031;-62
2022/10/25 10:50:30;;;;;;;20.52;8.03;;;;;;;17.67;100.00;152094.28;1800795;78;21200;-60
2022/10/25 10:53:00;;;;;;;24.55;9.23;;;;;;;17.61;100.00;152078.66;1798757;78;21028;-62
2022/10/25 10:55:44;;;;;;;18.37;7.75;;;;;;;17.56;100.00;152065.56;1794615;78;21063;-62
2022/10/25 10:58:23;;;;;;;15.45;8.55;;;;;;;17.50;100.00;152049.94;1803363;78;21540;-60
2022/10/25 11:00:56;;;;;;;17.00;8.08;;;;;;;17.43;100.00;152034.31;1794058;78;21052;-63
2022/10/25 11:03:46;;;;;;;16.93;7.85;;;;;;;17.36;100.00;152016.06;1811149;78;21197;-63
2022/10/25 11:06:17;;;;;;;14.80;8.10;;;;;;;17.31;100.00;152004.31;1768222;79;21084;-61
2022/10/25 11:08:46;;;;;;;18.95;8.08;;;;;;;17.29;100.00;151997.78;1761450;80;21474;-62
2022/10/25 11:11:19;;;;;;;16.27;8.05;;;;;;;17.24;100.00;151986.08;1713901;80;21043;-61
2022/10/25 11:13:52;;;;;;;16.30;7.78;;;;;;;17.21;100.00;151976.94;1802209;78;21898;-62
2022/10/25 11:16:56;;;;;;;15.28;7.12;;;;;;;17.20;100.00;151975.61;1802313;78;21585;-62
2022/10/25 11:19:56;;;;;;;15.43;7.87;;;;;;;17.21;100.00;151976.94;1810292;78;21388;-62
2022/10/25 11:23:06;;;;;;;23.10;8.03;;;;;;;17.24;100.00;151984.75;1801127;78;21103;-60
2022/10/25 11:25:47;;;;;;;20.88;7.85;;;;;;;17.25;100.00;151988.69;1806208;78;21043;-61
2022/10/25 11:28:36;;;;;;;17.35;7.20;;;;;;;17.30;100.00;152000.39;1805885;78;21114;-63
2022/10/25 11:31:48;;;;;;;14.70;6.78;;;;;;;17.35;100.00;152012.14;1801637;78;21128;-62
2022/10/25 11:34:29;;;;;;;17.10;7.37;;;;;;;17.41;100.00;152029.09;1801423;78;21121;-63